createdAt,value
2022-12-03T00:00:25.717Z,19.90
2022-12-03T00:02:55.045Z,19.83
2022-12-03T00:05:28.028Z,21.77
2022-12-03T00:07:55.884Z,21.10
2022-12-03T00:10:26.311Z,22.70
2022-12-03T00:12:54.242Z,23.53
2022-12-03T00:15:22.302Z,21.63
2022-12-03T00:17:54.334Z,22.63
2022-12-03T00:20:27.471Z,22.13
2022-12-03T00:22:55.396Z,20.43
2022-12-03T00:25:23.578Z,21.00
2022-12-03T00:27:51.371Z,23.27
2022-12-03T00:30:20.378Z,20.70
2022-12-03T00:32:48.519Z,25.57
2022-12-03T00:35:22.062Z,21.37
2022-12-03T00:37:52.652Z,27.40
2022-12-03T00:40:25.067Z,24.77
2022-12-03T00:42:52.874Z,22.63
2022-12-03T00:45:20.661Z,21.87
2022-12-03T00:47:48.457Z,21.97
2022-12-03T00:50:16.620Z,24.77
2022-12-03T00:52:48.358Z,22.20
2022-12-03T00:55:16.321Z,24.60
2022-12-03T00:57:47.390Z,23.10
2022-12-03T01:00:15.927Z,26.20
2022-12-03T01:02:43.689Z,23.10
2022-12-03T01:05:14.623Z,23.30
2022-12-03T01:07:42.601Z,22.77
2022-12-03T01:10:12.818Z,24.13
2022-12-03T01:12:41.055Z,24.87
2022-12-03T01:15:12.626Z,21.73
2022-12-03T01:17:40.437Z,27.10
2022-12-03T01:20:10.074Z,25.27
2022-12-03T01:22:37.864Z,25.00
2022-12-03T01:25:06.313Z,23.67
2022-12-03T01:27:35.587Z,25.63
2022-12-03T01:30:06.298Z,21.33
2022-12-03T01:32:36.298Z,26.13
2022-12-03T01:35:06.347Z,24.37
2022-12-03T01:37:34.243Z,23.03
2022-12-03T01:40:02.433Z,21.80
2022-12-03T01:42:32.385Z,25.23
2022-12-03T01:45:03.637Z,25.00
2022-12-03T01:47:33.505Z,21.03
2022-12-03T01:50:07.498Z,25.50
2022-12-03T01:52:39.512Z,22.80
2022-12-03T01:55:16.443Z,21.90
2022-12-03T01:57:48.298Z,24.43
2022-12-03T02:00:22.523Z,24.67
2022-12-03T02:02:53.469Z,24.67
2022-12-03T02:05:25.559Z,23.40
2022-12-03T02:07:53.638Z,25.47
2022-12-03T02:10:25.721Z,23.97
2022-12-03T02:12:57.694Z,24.00
2022-12-03T02:15:38.187Z,23.93
2022-12-03T02:18:12.333Z,24.43
2022-12-03T02:20:59.662Z,24.00
2022-12-03T02:23:35.913Z,25.13
2022-12-03T02:26:07.948Z,26.57
2022-12-03T02:28:36.206Z,22.33
2022-12-03T02:31:05.179Z,21.43
2022-12-03T02:33:47.436Z,23.67
2022-12-03T02:36:15.270Z,25.27
2022-12-03T02:38:47.641Z,24.93
2022-12-03T02:41:33.881Z,24.97
2022-12-03T02:44:02.145Z,25.33
2022-12-03T02:46:30.343Z,25.37
2022-12-03T02:48:59.542Z,26.90
2022-12-03T02:51:27.799Z,27.33
2022-12-03T02:53:56.599Z,23.63
2022-12-03T02:56:31.537Z,27.73
2022-12-03T02:59:02.569Z,25.57
2022-12-03T03:01:30.764Z,27.60
2022-12-03T03:03:59.407Z,25.20
2022-12-03T03:06:27.590Z,20.33
2022-12-03T03:08:55.482Z,28.87
2022-12-03T03:11:23.650Z,25.77
2022-12-03T03:13:54.102Z,25.20
2022-12-03T03:16:22.068Z,26.27
2022-12-03T03:18:50.276Z,27.40
2022-12-03T03:21:18.097Z,26.40
2022-12-03T03:23:45.896Z,27.43
2022-12-03T03:26:16.831Z,27.80
2022-12-03T03:28:49.090Z,25.70
2022-12-03T03:31:23.609Z,25.50
2022-12-03T03:33:52.491Z,23.47
2022-12-03T03:36:22.190Z,24.23
2022-12-03T03:38:50.303Z,22.73
2022-12-03T03:41:21.846Z,25.97
2022-12-03T03:43:53.445Z,23.37
2022-12-03T03:46:23.583Z,26.10
2022-12-03T03:48:52.643Z,24.30
2022-12-03T03:51:21.379Z,24.93
2022-12-03T03:53:58.923Z,26.30
2022-12-03T03:56:27.003Z,29.30
2022-12-03T03:58:55.898Z,25.60
2022-12-03T04:01:28.135Z,25.97
2022-12-03T04:03:57.251Z,26.43
2022-12-03T04:06:25.060Z,26.83
2022-12-03T04:08:57.571Z,27.03
2022-12-03T04:14:25.939Z,26.50
2022-12-03T04:16:58.569Z,24.33
2022-12-03T04:19:26.436Z,26.97
2022-12-03T04:22:11.818Z,26.50
2022-12-03T04:24:39.618Z,27.17
2022-12-03T04:27:27.214Z,26.70
2022-12-03T04:29:55.040Z,28.13
2022-12-03T04:32:41.811Z,27.90
2022-12-03T04:35:27.812Z,27.37
2022-12-03T04:37:55.707Z,24.23
2022-12-03T04:40:41.049Z,28.47
2022-12-03T04:43:08.909Z,26.00
2022-12-03T04:45:36.788Z,26.00
2022-12-03T04:48:06.457Z,28.97
2022-12-03T04:50:35.326Z,28.80
2022-12-03T04:53:03.153Z,24.03
2022-12-03T04:55:30.948Z,25.77
2022-12-03T04:57:58.812Z,25.90
2022-12-03T05:00:27.811Z,25.73
2022-12-03T05:02:55.672Z,30.17
2022-12-03T05:05:27.744Z,23.50
2022-12-03T05:07:57.340Z,23.33
2022-12-03T05:10:27.325Z,22.30
2022-12-03T05:13:00.784Z,25.53
2022-12-03T05:15:28.613Z,24.90
2022-12-03T05:17:56.412Z,25.83
2022-12-03T05:20:47.110Z,24.97
2022-12-03T05:23:21.018Z,26.23
2022-12-03T05:25:49.385Z,27.77
2022-12-03T05:28:17.206Z,26.47
2022-12-03T05:30:47.522Z,26.90
2022-12-03T05:33:15.401Z,26.93
2022-12-03T05:35:44.585Z,28.53
2022-12-03T05:38:12.398Z,25.83
2022-12-03T05:40:43.022Z,27.93
2022-12-03T05:43:11.100Z,28.43
2022-12-03T05:45:42.885Z,24.73
2022-12-03T05:48:14.897Z,27.17
2022-12-03T05:50:45.787Z,26.10
2022-12-03T05:53:17.111Z,26.93
2022-12-03T05:55:51.430Z,27.03
2022-12-03T05:58:21.932Z,27.63
2022-12-03T06:00:49.867Z,28.57
2022-12-03T06:03:17.710Z,28.53
2022-12-03T06:05:46.995Z,26.03
2022-12-03T06:08:15.071Z,25.43
2022-12-03T06:10:42.897Z,24.10
2022-12-03T06:13:10.623Z,24.77
2022-12-03T06:15:43.459Z,24.13
2022-12-03T06:18:11.891Z,23.67
2022-12-03T06:20:40.109Z,23.87
2022-12-03T06:23:09.241Z,23.60
2022-12-03T06:25:37.049Z,29.07
2022-12-03T06:28:05.124Z,20.40
2022-12-03T06:30:34.190Z,23.03
2022-12-03T06:33:02.374Z,25.73
2022-12-03T06:35:33.360Z,24.53
2022-12-03T06:38:01.514Z,20.40
2022-12-03T06:40:31.532Z,23.70
2022-12-03T06:42:59.605Z,21.30
2022-12-03T06:45:27.460Z,21.60
2022-12-03T06:47:55.224Z,24.07
2022-12-03T06:50:23.353Z,26.87
2022-12-03T06:52:51.170Z,25.27
2022-12-03T06:55:21.778Z,25.87
2022-12-03T06:57:53.343Z,26.77
2022-12-03T07:00:22.090Z,23.40
2022-12-03T07:02:49.946Z,25.60
2022-12-03T07:05:18.065Z,23.77
2022-12-03T07:07:50.200Z,27.93
2022-12-03T07:10:18.417Z,22.40
2022-12-03T07:12:49.326Z,24.00
2022-12-03T07:15:18.833Z,25.27
2022-12-03T07:17:46.738Z,29.87
2022-12-03T07:20:15.138Z,25.63
2022-12-03T07:22:45.642Z,27.03
2022-12-03T07:25:18.226Z,27.40
2022-12-03T07:27:50.986Z,25.50
2022-12-03T07:30:20.790Z,27.87
2022-12-03T07:32:48.800Z,24.53
2022-12-03T07:35:19.768Z,27.40
2022-12-03T07:37:49.122Z,28.17
2022-12-03T07:40:17.306Z,25.47
2022-12-03T07:42:45.458Z,26.40
2022-12-03T07:45:14.653Z,29.77
2022-12-03T07:47:45.123Z,26.83
2022-12-03T07:50:13.599Z,27.80
2022-12-03T07:52:41.416Z,27.30
2022-12-03T07:55:10.491Z,29.27
2022-12-03T07:57:38.518Z,29.13
2022-12-03T08:00:08.295Z,31.13
2022-12-03T08:02:36.728Z,29.93
2022-12-03T08:05:06.895Z,27.30
2022-12-03T08:07:34.927Z,27.70
2022-12-03T08:10:02.742Z,32.03
2022-12-03T08:12:40.780Z,27.63
2022-12-03T08:15:14.047Z,32.30
2022-12-03T08:17:46.459Z,33.17
2022-12-03T08:20:19.016Z,37.57
2022-12-03T08:22:49.331Z,31.97
2022-12-03T08:25:21.865Z,37.87
2022-12-03T08:27:49.910Z,39.73
2022-12-03T08:30:19.363Z,35.73
2022-12-03T08:32:48.153Z,38.53
2022-12-03T08:35:23.639Z,33.50
2022-12-03T08:37:58.548Z,29.87
2022-12-03T08:40:40.891Z,33.63
2022-12-03T08:43:19.273Z,32.00
2022-12-03T08:45:49.611Z,31.83
2022-12-03T08:48:34.860Z,30.47
2022-12-03T08:51:11.783Z,29.97
2022-12-03T08:53:45.905Z,35.17
2022-12-03T08:56:34.471Z,32.27
2022-12-03T08:59:16.832Z,30.33
2022-12-03T09:01:47.734Z,31.90
2022-12-03T09:04:25.164Z,33.80
2022-12-03T09:06:55.335Z,32.10
2022-12-03T09:09:24.314Z,32.13
2022-12-03T09:11:55.180Z,32.93
2022-12-03T09:14:23.537Z,32.50
2022-12-03T09:16:55.509Z,31.63
2022-12-03T09:19:24.596Z,31.67
2022-12-03T09:21:54.178Z,35.43
2022-12-03T09:24:24.742Z,31.90
2022-12-03T09:26:52.553Z,34.07
2022-12-03T09:29:20.751Z,30.67
2022-12-03T09:31:48.664Z,29.13
2022-12-03T09:34:18.575Z,34.77
2022-12-03T09:36:50.135Z,32.67
2022-12-03T09:39:19.291Z,33.97
2022-12-03T09:41:47.639Z,34.50
2022-12-03T09:44:18.162Z,35.60
2022-12-03T09:47:01.845Z,33.63
2022-12-03T09:49:31.432Z,31.03
2022-12-03T09:52:01.597Z,34.50
2022-12-03T09:54:32.837Z,34.43
2022-12-03T09:57:05.854Z,28.23
2022-12-03T09:59:35.237Z,33.90
2022-12-03T10:02:11.033Z,32.33
2022-12-03T10:04:38.900Z,28.47
2022-12-03T10:07:08.254Z,29.97
2022-12-03T10:09:37.478Z,31.40
2022-12-03T10:12:11.533Z,31.67
2022-12-03T10:14:39.760Z,31.47
2022-12-03T10:17:12.581Z,36.03
2022-12-03T10:19:45.519Z,40.83
2022-12-03T10:22:13.499Z,44.00
2022-12-03T10:24:45.551Z,38.50
2022-12-03T10:27:24.834Z,39.80
2022-12-03T10:30:02.858Z,44.83
2022-12-03T10:32:41.428Z,33.10
2022-12-03T10:35:11.729Z,36.30
2022-12-03T10:37:57.856Z,43.90
2022-12-03T10:40:28.432Z,43.37
2022-12-03T10:43:15.451Z,37.77
2022-12-03T10:45:43.959Z,40.43
2022-12-03T10:48:15.016Z,37.27
2022-12-03T10:50:49.822Z,41.13
2022-12-03T10:53:18.564Z,40.43
2022-12-03T10:55:49.178Z,41.00
2022-12-03T10:58:22.496Z,39.77
2022-12-03T11:00:58.844Z,39.87
2022-12-03T11:03:28.645Z,43.73
2022-12-03T11:05:57.949Z,42.50
2022-12-03T11:08:27.586Z,38.97
2022-12-03T11:11:05.887Z,36.30
2022-12-03T11:13:49.584Z,39.20
2022-12-03T11:16:57.714Z,37.20
2022-12-03T11:19:46.704Z,38.93
2022-12-03T11:22:48.916Z,34.67
2022-12-03T11:25:47.735Z,38.93
2022-12-03T11:29:00.349Z,34.10
2022-12-03T11:31:38.609Z,38.87
2022-12-03T11:34:49.514Z,33.53
2022-12-03T11:37:27.933Z,35.83
2022-12-03T11:40:04.572Z,29.43
2022-12-03T11:42:40.402Z,26.40
2022-12-03T11:45:23.658Z,28.90
2022-12-03T11:48:12.586Z,26.93
2022-12-03T11:50:42.937Z,30.20
2022-12-03T11:53:20.020Z,26.40
2022-12-03T11:55:53.091Z,25.87
2022-12-03T11:58:29.131Z,25.30
2022-12-03T12:01:00.614Z,27.07
2022-12-03T12:03:33.365Z,34.60
2022-12-03T12:06:10.183Z,25.00
2022-12-03T12:08:42.236Z,27.60
2022-12-03T12:11:26.259Z,25.17
2022-12-03T12:13:56.304Z,23.80
2022-12-03T12:16:38.806Z,23.20
2022-12-03T12:19:46.464Z,23.70
2022-12-03T12:22:31.941Z,23.63
2022-12-03T12:25:00.625Z,20.80
2022-12-03T12:27:34.762Z,20.73
2022-12-03T12:30:04.329Z,19.37
2022-12-03T12:32:34.185Z,24.37
2022-12-03T12:35:13.481Z,22.67
2022-12-03T12:37:47.715Z,22.23
2022-12-03T12:40:18.009Z,25.40
2022-12-03T12:42:52.018Z,22.13
2022-12-03T12:45:22.514Z,23.20
2022-12-03T12:48:03.148Z,24.73
2022-12-03T12:50:35.895Z,23.13
2022-12-03T12:53:09.897Z,29.57
2022-12-03T12:55:38.688Z,30.83
2022-12-03T12:58:16.715Z,27.43
2022-12-03T13:00:47.583Z,25.93
2022-12-03T13:03:19.472Z,22.87
2022-12-03T13:05:50.064Z,23.53
2022-12-03T13:08:25.391Z,24.97
2022-12-03T13:10:54.025Z,24.17
2022-12-03T13:13:28.151Z,24.80
2022-12-03T13:16:06.422Z,23.90
2022-12-03T13:18:43.543Z,23.13
2022-12-03T13:21:35.987Z,23.03
2022-12-03T13:24:12.362Z,27.60
2022-12-03T13:26:42.859Z,23.57
2022-12-03T13:29:15.809Z,30.90
2022-12-03T13:31:49.683Z,32.40
2022-12-03T13:34:24.292Z,25.50
2022-12-03T13:36:57.984Z,28.90
2022-12-03T13:39:32.301Z,27.23
2022-12-03T13:42:33.628Z,26.57
2022-12-03T13:45:03.675Z,24.97
2022-12-03T13:47:31.510Z,28.73
2022-12-03T13:50:04.182Z,27.10
2022-12-03T13:52:35.382Z,35.30
2022-12-03T13:55:04.930Z,29.67
2022-12-03T13:57:32.771Z,29.67
2022-12-03T14:00:00.603Z,33.60
2022-12-03T14:02:35.845Z,37.40
2022-12-03T14:05:06.806Z,38.20
2022-12-03T14:07:36.065Z,44.43
2022-12-03T14:10:04.347Z,45.10
2022-12-03T14:12:33.732Z,40.67
2022-12-03T14:15:02.061Z,46.00
2022-12-03T14:17:30.808Z,48.47
2022-12-03T14:20:01.817Z,42.53
2022-12-03T14:22:29.821Z,41.10
2022-12-03T14:25:04.483Z,42.10
2022-12-03T14:27:35.291Z,39.20
2022-12-03T14:30:03.561Z,41.60
2022-12-03T14:32:34.253Z,37.30
2022-12-03T14:35:08.171Z,39.40
2022-12-03T14:37:39.119Z,43.60
2022-12-03T14:40:09.731Z,37.30
2022-12-03T14:42:40.901Z,36.93
2022-12-03T14:45:12.022Z,34.90
2022-12-03T14:47:39.851Z,40.80
2022-12-03T14:50:14.120Z,34.60
2022-12-03T14:52:53.684Z,35.00
2022-12-03T14:55:22.901Z,33.77
2022-12-03T14:57:50.701Z,33.03
2022-12-03T15:00:19.743Z,33.67
2022-12-03T15:02:50.446Z,34.80
2022-12-03T15:05:24.778Z,29.23
2022-12-03T15:07:56.052Z,30.67
2022-12-03T15:10:25.293Z,30.63
2022-12-03T15:12:53.110Z,30.37
2022-12-03T15:15:21.377Z,28.00
2022-12-03T15:17:52.276Z,26.50
2022-12-03T15:20:20.935Z,24.23
2022-12-03T15:22:49.104Z,27.13
2022-12-03T15:25:24.103Z,26.50
2022-12-03T15:27:53.229Z,27.70
2022-12-03T15:30:21.480Z,24.97
2022-12-03T15:32:49.695Z,26.20
2022-12-03T15:35:18.662Z,29.13
2022-12-03T15:37:46.930Z,26.03
2022-12-03T15:40:17.423Z,26.17
2022-12-03T15:42:48.212Z,23.03
2022-12-03T15:45:17.702Z,25.73
2022-12-03T15:47:46.433Z,26.03
2022-12-03T15:50:16.969Z,29.03
2022-12-03T15:52:44.845Z,26.20
2022-12-03T15:55:14.379Z,28.33
2022-12-03T15:57:45.081Z,28.97
2022-12-03T16:00:18.057Z,34.47
2022-12-03T16:02:52.386Z,29.13
2022-12-03T16:05:20.841Z,37.33
2022-12-03T16:07:48.862Z,34.70
2022-12-03T16:10:17.521Z,36.03
2022-12-03T16:12:45.330Z,41.43
2022-12-03T16:15:13.086Z,43.30
2022-12-03T16:17:42.272Z,43.70
2022-12-03T16:20:10.692Z,40.07
2022-12-03T16:22:38.476Z,41.10
2022-12-03T16:25:07.147Z,38.80
2022-12-03T16:27:41.244Z,40.67
2022-12-03T16:30:10.198Z,44.63
2022-12-03T16:32:54.676Z,41.20
2022-12-03T16:35:22.637Z,39.40
2022-12-03T16:37:50.397Z,38.50
2022-12-03T16:40:18.557Z,37.60
2022-12-03T16:42:46.483Z,37.93
2022-12-03T16:45:33.964Z,44.73
2022-12-03T16:48:03.709Z,45.97
2022-12-03T16:50:39.952Z,46.90
2022-12-03T16:53:08.059Z,42.00
2022-12-03T16:55:35.994Z,48.17
2022-12-03T16:58:21.467Z,38.80
2022-12-03T17:00:49.673Z,48.33
2022-12-03T17:03:18.993Z,43.63
2022-12-03T17:05:47.611Z,45.10
2022-12-03T17:08:16.814Z,40.73
2022-12-03T17:10:47.560Z,41.60
2022-12-03T17:13:15.634Z,38.97
2022-12-03T17:15:43.654Z,49.90
2022-12-03T17:18:11.944Z,44.20
2022-12-03T17:20:57.143Z,44.17
2022-12-03T17:23:24.978Z,43.83
2022-12-03T17:25:52.737Z,42.40
2022-12-03T17:28:20.496Z,44.70
2022-12-03T17:30:51.405Z,46.20
2022-12-03T17:33:19.266Z,45.40
2022-12-03T17:35:48.550Z,42.70
2022-12-03T17:38:16.966Z,50.03
2022-12-03T17:40:44.711Z,51.27
2022-12-03T17:43:12.542Z,44.43
2022-12-03T17:45:43.606Z,43.27
2022-12-03T17:48:11.446Z,45.30
2022-12-03T17:50:39.386Z,43.77
2022-12-03T17:53:10.376Z,44.70
2022-12-03T17:55:44.618Z,46.93
2022-12-03T17:58:16.023Z,47.37
2022-12-03T18:00:44.197Z,47.87
2022-12-03T18:03:12.080Z,54.33
2022-12-03T18:05:39.911Z,47.07
2022-12-03T18:08:13.450Z,45.27
2022-12-03T18:10:41.609Z,45.23
2022-12-03T18:13:09.412Z,44.27
2022-12-03T18:15:37.276Z,50.57
2022-12-03T18:18:05.409Z,44.67
2022-12-03T18:20:33.346Z,45.97
2022-12-03T18:23:03.871Z,41.03
2022-12-03T18:25:36.647Z,43.90
2022-12-03T18:28:04.836Z,43.67
2022-12-03T18:30:40.687Z,45.87
2022-12-03T18:33:08.463Z,40.27
2022-12-03T18:35:36.440Z,43.77
2022-12-03T18:38:04.358Z,42.10
2022-12-03T18:40:33.509Z,43.23
2022-12-03T18:43:01.491Z,39.80
2022-12-03T18:45:29.344Z,42.07
2022-12-03T18:47:57.173Z,40.57
2022-12-03T18:50:25.356Z,40.00
2022-12-03T18:52:53.179Z,40.93
2022-12-03T18:55:31.975Z,43.67
2022-12-03T18:58:01.421Z,41.00
2022-12-03T19:00:30.109Z,42.37
2022-12-03T19:03:04.198Z,38.53
2022-12-03T19:05:33.618Z,38.70
2022-12-03T19:08:03.309Z,39.50
2022-12-03T19:10:31.305Z,43.50
2022-12-03T19:13:03.603Z,36.43
2022-12-03T19:15:32.795Z,35.17
2022-12-03T19:18:04.041Z,38.47
2022-12-03T19:20:31.930Z,42.30
2022-12-03T19:23:03.892Z,47.17
2022-12-03T19:25:31.646Z,43.47
2022-12-03T19:27:59.473Z,37.47
2022-12-03T19:30:27.314Z,38.63
2022-12-03T19:32:56.473Z,41.50
2022-12-03T19:35:25.003Z,38.30
2022-12-03T19:37:58.633Z,38.03
2022-12-03T19:40:26.392Z,36.03
2022-12-03T19:42:54.177Z,36.50
2022-12-03T19:45:22.142Z,44.03
2022-12-03T19:47:49.934Z,36.50
2022-12-03T19:50:23.045Z,40.73
2022-12-03T19:52:51.645Z,43.03
2022-12-03T19:55:20.405Z,36.80
2022-12-03T19:57:49.895Z,40.00
2022-12-03T20:00:17.929Z,41.57
2022-12-03T20:02:45.792Z,35.47
2022-12-03T20:05:13.645Z,36.93
2022-12-03T20:07:42.895Z,38.83
2022-12-03T20:10:14.038Z,36.63
2022-12-03T20:12:42.177Z,39.10
2022-12-03T20:15:10.784Z,42.13
2022-12-03T20:17:38.644Z,41.93
2022-12-03T20:20:08.083Z,38.40
2022-12-03T20:22:35.919Z,39.90
2022-12-03T20:25:08.116Z,41.50
2022-12-03T20:27:36.482Z,40.03
2022-12-03T20:30:08.077Z,41.30
2022-12-03T20:32:39.368Z,40.83
2022-12-03T20:35:10.243Z,40.40
2022-12-03T20:37:38.050Z,41.43
2022-12-03T20:40:08.889Z,36.77
2022-12-03T20:42:36.636Z,39.83
2022-12-03T20:45:04.916Z,41.73
2022-12-03T20:47:34.172Z,42.60
2022-12-03T20:50:02.326Z,36.17
2022-12-03T20:52:30.135Z,39.60
2022-12-03T20:55:00.627Z,38.73
2022-12-03T20:57:29.790Z,37.63
2022-12-03T20:59:57.611Z,45.33
2022-12-03T21:02:25.449Z,40.70
2022-12-03T21:04:54.663Z,37.53
2022-12-03T21:07:24.644Z,34.77
2022-12-03T21:09:59.646Z,40.17
2022-12-03T21:12:29.714Z,40.43
2022-12-03T21:14:57.866Z,39.13
2022-12-03T21:17:25.730Z,40.90
2022-12-03T21:19:54.455Z,42.17
2022-12-03T21:22:24.698Z,37.53
2022-12-03T21:24:52.555Z,37.47
2022-12-03T21:27:21.972Z,39.80
2022-12-03T21:29:52.746Z,42.00
2022-12-03T21:32:20.788Z,36.17
2022-12-03T21:35:01.699Z,38.43
2022-12-03T21:37:29.464Z,39.70
2022-12-03T21:39:59.218Z,42.40
2022-12-03T21:42:36.024Z,40.90
2022-12-03T21:45:08.776Z,41.60
2022-12-03T21:47:39.314Z,41.10
2022-12-03T21:50:11.086Z,40.70
2022-12-03T21:52:39.063Z,41.20
2022-12-03T21:55:07.569Z,44.53
2022-12-03T21:57:39.769Z,45.37
2022-12-03T22:00:10.718Z,43.93
2022-12-03T22:02:41.412Z,36.87
2022-12-03T22:05:10.192Z,43.57
2022-12-03T22:07:43.821Z,38.27
2022-12-03T22:10:13.102Z,41.87
2022-12-03T22:12:41.906Z,40.83
2022-12-03T22:15:18.106Z,40.93
2022-12-03T22:17:50.936Z,42.97
2022-12-03T22:20:18.949Z,38.33
2022-12-03T22:22:46.778Z,37.77
2022-12-03T22:25:14.690Z,40.63
2022-12-03T22:27:42.526Z,37.07
2022-12-03T22:30:12.297Z,45.47
2022-12-03T22:32:40.085Z,42.13
2022-12-03T22:35:08.517Z,40.63
2022-12-03T22:37:36.411Z,42.23
2022-12-03T22:40:05.493Z,39.33
2022-12-03T22:42:33.245Z,41.83
2022-12-03T22:45:01.105Z,43.67
2022-12-03T22:47:30.375Z,35.33
2022-12-03T22:49:58.392Z,39.97
2022-12-03T22:52:29.078Z,39.33
2022-12-03T22:55:04.172Z,39.13
2022-12-03T22:57:32.313Z,37.87
2022-12-03T23:00:06.867Z,43.43
2022-12-03T23:02:36.155Z,39.70
2022-12-03T23:05:04.298Z,50.43
2022-12-03T23:07:32.294Z,41.47
2022-12-03T23:10:03.284Z,42.87
2022-12-03T23:12:34.239Z,41.80
2022-12-03T23:15:02.363Z,43.93
2022-12-03T23:17:30.169Z,47.87
2022-12-03T23:19:59.317Z,42.90
2022-12-03T23:22:27.204Z,46.50
2022-12-03T23:24:59.151Z,42.67
2022-12-03T23:27:27.297Z,42.70
2022-12-03T23:29:55.230Z,45.40
2022-12-03T23:32:23.513Z,48.20
2022-12-03T23:34:53.698Z,45.90
2022-12-03T23:37:23.568Z,44.57
2022-12-03T23:39:51.624Z,44.83
2022-12-03T23:42:25.642Z,44.93
2022-12-03T23:44:53.551Z,44.20
2022-12-03T23:47:22.790Z,49.67
2022-12-03T23:49:50.557Z,43.70
2022-12-03T23:52:18.429Z,46.73
2022-12-03T23:54:47.601Z,44.93
2022-12-03T23:57:18.263Z,44.37
2022-12-03T23:59:46.150Z,47.13
